Current | Forecast
Updated: 7:00 AM JST on December 14, 2017
Observed at Kansai, Japan
Temperature 39°F
Windchill 31°F
Humidity 70%
Dew Point 30°F
Wind North at 14 mph
Pressure 30.30 in (Steady)
Conditions Partly Cloudy
Visibility 6.2 miles
UV 0 out of 16
Clouds (FEW) : 2000 ft
Yesterday's Maximum 46°F
Yesterday's Minimum 39°F approx.
Yesterday's Heating Degree Days 22 approx.
Sunrise6:53 AM JST
Sunset4:48 PM JST
Moon Rise2:53 AM JST
Moon Set2:27 PM JST
Moon PhaseMoon Phase
Waning Crescent
Raw METARMETAR RJBB 132200Z 35012KT 9999 FEW020 04/M01 Q1026 NOSIG


Monday
. High: 71° F.
Tuesday
. High: 71° F.
Wednesday
. High: 75° F.
Thursday
. High: 71° F.
Friday
. High: 73° F.
Saturday
. High: 77° F.
Sunday
. High: 75° F.
Monday
. High: 78° F.

Units: English | Metric

Find the Weather for any City, State or Zipcode, or Country:

U.S. State List | Severe Weather | Tropical Storms | Ski Conditions
United States | Canada | Central America | South America | Asia | Europe | Australia | Africa | Islands

Weather Underground

© Copyright 2017
The Weather Company, LLC